KMTN/MTN METAR and TAF weather

Enter ICAO airport designator
Station Type Date Time Source
KMTN METAR 2021/04/18 00:55 UTC NOAA

KMTN 180055Z 29006KT 10SM CLR 10/05 A2987


Station Type Date Time Source
KMTN Decoded METAR 2021/04/18 00:55 UTC NOAA

Baltimore / Martin, MD, United States (KMTN) 39-20N 076-25W
Apr 17, 2021 - 08:55 PM EDT / 2021.04.18 0055 UTC
Wind: from the WNW (290 degrees) at 7 MPH (6 KT):0
Visibility: 10 mile(s):0
Sky conditions: clear
Temperature: 50 F (10 C)
Dew Point: 41 F (5 C)
Relative Humidity: 71%
Pressure (altimeter): 29.87 in. Hg (1011 hPa)
ob: KMTN 180055Z 29006KT 10SM CLR 10/05 A2987
cycle: 1

Station Type Date Time Source
KMTN TAF 2021/04/17 18:42 UTC NOAA

TAF KMTN 171741Z 1718/1818 28010KT P6SM BKN045
FM172300 32005KT P6SM OVC060
FM180700 31004KT P6SM SCT140
FM181200 32004KT P6SM FEW045 SCT120
FM181700 25005KT P6SM FEW045 SCT100

Example: see airport list